createdAt,value
2022-12-18T00:01:07.216Z,20.67
2022-12-18T00:03:34.325Z,19.00
2022-12-18T00:06:00.995Z,23.80
2022-12-18T00:08:27.421Z,21.00
2022-12-18T00:10:53.915Z,22.20
2022-12-18T00:13:26.294Z,21.23
2022-12-18T00:15:54.414Z,20.20
2022-12-18T00:18:23.307Z,20.80
2022-12-18T00:20:49.715Z,22.48
2022-12-18T00:23:16.163Z,21.23
2022-12-18T00:25:42.574Z,21.08
2022-12-18T00:28:09.061Z,20.10
2022-12-18T00:30:35.502Z,21.05
2022-12-18T00:33:01.957Z,19.55
2022-12-18T00:35:28.540Z,21.80
2022-12-18T00:37:55.024Z,20.77
2022-12-18T00:40:23.385Z,21.83
2022-12-18T00:42:58.950Z,20.92
2022-12-18T00:45:30.410Z,19.67
2022-12-18T00:47:57.520Z,19.20
2022-12-18T00:50:24.851Z,17.77
2022-12-18T00:52:51.581Z,22.15
2022-12-18T00:55:18.784Z,21.92
2022-12-18T00:57:47.100Z,19.30
2022-12-18T01:00:14.948Z,21.35
2022-12-18T01:02:42.307Z,19.80
2022-12-18T01:05:09.495Z,19.70
2022-12-18T01:07:36.022Z,21.10
2022-12-18T01:10:03.840Z,19.60
2022-12-18T01:12:30.405Z,19.63
2022-12-18T01:14:56.935Z,19.42
2022-12-18T01:17:23.609Z,21.23
2022-12-18T01:19:50.075Z,20.77
2022-12-18T01:22:16.605Z,22.80
2022-12-18T01:24:44.853Z,19.75
2022-12-18T01:27:11.377Z,21.48
2022-12-18T01:29:39.835Z,21.95
2022-12-18T01:32:06.365Z,21.65
2022-12-18T01:34:32.886Z,20.73
2022-12-18T01:36:59.412Z,21.45
2022-12-18T01:39:26.346Z,19.35
2022-12-18T01:42:05.152Z,18.67
2022-12-18T01:44:50.563Z,20.73
2022-12-18T01:47:28.340Z,22.35
2022-12-18T01:49:55.722Z,19.65
2022-12-18T01:52:22.648Z,20.15
2022-12-18T01:54:50.182Z,24.23
2022-12-18T01:57:16.866Z,20.83
2022-12-18T01:59:43.970Z,20.90
2022-12-18T02:02:10.657Z,20.25
2022-12-18T02:04:37.275Z,20.80
2022-12-18T02:07:16.083Z,21.80
2022-12-18T02:09:47.428Z,21.60
2022-12-18T02:12:31.590Z,21.40
2022-12-18T02:15:03.939Z,21.92
2022-12-18T02:17:53.662Z,22.15
2022-12-18T02:20:33.084Z,22.80
2022-12-18T02:23:00.573Z,19.83
2022-12-18T02:25:44.993Z,24.40
2022-12-18T02:28:14.485Z,23.77
2022-12-18T02:30:41.776Z,20.88
2022-12-18T02:33:09.236Z,20.98
2022-12-18T02:35:36.281Z,19.23
2022-12-18T02:38:04.058Z,22.63
2022-12-18T02:40:33.907Z,21.35
2022-12-18T02:43:18.994Z,20.83
2022-12-18T02:45:54.379Z,21.25
2022-12-18T02:48:23.805Z,22.15
2022-12-18T02:51:09.099Z,23.25
2022-12-18T02:53:44.441Z,22.38
2022-12-18T02:56:22.520Z,19.65
2022-12-18T02:59:10.760Z,21.35
2022-12-18T03:01:42.696Z,21.65
2022-12-18T03:04:19.448Z,20.30
2022-12-18T03:06:49.409Z,21.10
2022-12-18T03:09:22.282Z,19.38
2022-12-18T03:12:21.543Z,20.77
2022-12-18T03:14:50.990Z,19.45
2022-12-18T03:17:18.667Z,22.67
2022-12-18T03:19:46.937Z,23.13
2022-12-18T03:22:14.327Z,20.98
2022-12-18T03:24:46.853Z,18.55
2022-12-18T03:27:15.792Z,17.42
2022-12-18T03:29:48.731Z,18.75
2022-12-18T03:32:27.197Z,17.92
2022-12-18T03:34:56.297Z,17.88
2022-12-18T03:37:23.487Z,18.27
2022-12-18T03:39:52.099Z,17.33
2022-12-18T03:42:41.362Z,17.15
2022-12-18T03:45:17.293Z,16.55
2022-12-18T03:47:56.957Z,18.35
2022-12-18T03:50:34.964Z,17.58
2022-12-18T03:53:06.005Z,17.30
2022-12-18T03:55:34.604Z,15.32
2022-12-18T03:58:05.528Z,17.17
2022-12-18T04:00:42.451Z,17.23
2022-12-18T04:03:11.176Z,17.50
2022-12-18T04:05:43.243Z,16.52
2022-12-18T04:08:10.106Z,15.23
2022-12-18T04:10:40.385Z,16.83
2022-12-18T04:13:07.298Z,14.52
2022-12-18T04:15:36.258Z,15.23
2022-12-18T04:18:04.522Z,17.90
2022-12-18T04:20:38.331Z,15.18
2022-12-18T04:23:05.139Z,18.15
2022-12-18T04:25:32.447Z,17.60
2022-12-18T04:28:08.028Z,15.50
2022-12-18T04:30:35.870Z,16.10
2022-12-18T04:33:02.304Z,15.38
2022-12-18T04:35:31.220Z,15.65
2022-12-18T04:37:57.776Z,16.25
2022-12-18T04:40:24.222Z,14.88
2022-12-18T04:42:51.822Z,15.32
2022-12-18T04:45:18.503Z,16.30
2022-12-18T04:47:45.256Z,14.70
2022-12-18T04:50:11.804Z,15.98
2022-12-18T04:52:38.284Z,15.45
2022-12-18T04:55:04.976Z,17.08
2022-12-18T04:57:31.402Z,15.30
2022-12-18T04:59:57.822Z,14.00
2022-12-18T05:02:24.388Z,13.88
2022-12-18T05:04:50.988Z,15.80
2022-12-18T05:07:17.485Z,17.65
2022-12-18T05:09:43.969Z,13.18
2022-12-18T05:12:11.739Z,13.48
2022-12-18T05:14:38.249Z,14.35
2022-12-18T05:17:04.657Z,14.35
2022-12-18T05:19:31.114Z,13.25
2022-12-18T05:21:57.720Z,12.50
2022-12-18T05:24:24.719Z,14.05
2022-12-18T05:26:51.210Z,16.15
2022-12-18T05:29:17.713Z,14.00
2022-12-18T05:31:44.227Z,14.75
2022-12-18T05:34:11.354Z,13.95
2022-12-18T05:36:38.085Z,13.82
2022-12-18T05:39:04.789Z,14.45
2022-12-18T05:41:32.578Z,14.68
2022-12-18T05:43:59.220Z,14.10
2022-12-18T05:46:25.684Z,16.73
2022-12-18T05:48:52.591Z,15.32
2022-12-18T05:51:20.272Z,13.25
2022-12-18T05:53:47.100Z,14.70
2022-12-18T05:56:15.792Z,13.73
2022-12-18T05:58:42.538Z,14.55
2022-12-18T06:01:13.824Z,14.00
2022-12-18T06:03:40.902Z,13.77
2022-12-18T06:06:17.898Z,13.95
2022-12-18T06:08:46.862Z,14.95
2022-12-18T06:11:14.211Z,15.25
2022-12-18T06:13:40.998Z,16.05
2022-12-18T06:16:08.031Z,14.73
2022-12-18T06:18:35.064Z,13.60
2022-12-18T06:21:01.621Z,14.27
2022-12-18T06:23:28.282Z,16.77
2022-12-18T06:25:55.178Z,15.52
2022-12-18T06:28:21.660Z,19.00
2022-12-18T06:30:49.226Z,15.98
2022-12-18T06:33:16.088Z,15.00
2022-12-18T06:35:42.621Z,17.75
2022-12-18T06:38:09.210Z,16.63
2022-12-18T06:40:37.608Z,16.42
2022-12-18T06:43:04.078Z,16.75
2022-12-18T06:45:30.557Z,14.98
2022-12-18T06:47:57.107Z,16.20
2022-12-18T06:50:23.900Z,17.45
2022-12-18T06:52:50.432Z,19.17
2022-12-18T06:55:17.002Z,20.15
2022-12-18T06:57:43.598Z,20.35
2022-12-18T07:00:10.281Z,18.52
2022-12-18T07:02:36.804Z,18.40
2022-12-18T07:05:10.267Z,19.33
2022-12-18T07:07:37.495Z,15.98
2022-12-18T07:10:04.163Z,15.40
2022-12-18T07:12:30.665Z,22.77
2022-12-18T07:14:57.089Z,24.15
2022-12-18T07:17:23.625Z,22.13
2022-12-18T07:19:50.040Z,21.05
2022-12-18T07:22:16.470Z,22.25
2022-12-18T07:24:42.991Z,21.45
2022-12-18T07:27:09.844Z,25.27
2022-12-18T07:29:36.928Z,18.20
2022-12-18T07:32:04.512Z,16.33
2022-12-18T07:34:31.049Z,16.85
2022-12-18T07:36:57.537Z,17.52
2022-12-18T07:39:23.994Z,16.48
2022-12-18T07:42:10.493Z,17.60
2022-12-18T07:44:40.057Z,17.15
2022-12-18T07:47:10.514Z,16.67
2022-12-18T07:49:38.741Z,16.77
2022-12-18T07:52:05.240Z,17.45
2022-12-18T07:54:31.711Z,17.83
2022-12-18T07:56:58.173Z,18.38
2022-12-18T07:59:24.646Z,19.05
2022-12-18T08:01:51.215Z,18.02
2022-12-18T08:04:17.889Z,17.38
2022-12-18T08:06:47.812Z,17.70
2022-12-18T08:09:15.004Z,17.65
2022-12-18T08:11:41.452Z,17.23
2022-12-18T08:14:07.967Z,19.55
2022-12-18T08:16:34.867Z,30.15
2022-12-18T08:19:01.300Z,34.65
2022-12-18T08:21:28.814Z,35.78
2022-12-18T08:23:56.320Z,28.00
2022-12-18T08:26:23.495Z,21.65
2022-12-18T08:28:50.793Z,21.88
2022-12-18T08:31:17.474Z,19.45
2022-12-18T08:33:44.413Z,18.17
2022-12-18T08:36:11.117Z,17.65
2022-12-18T08:38:37.736Z,21.23
2022-12-18T08:41:07.990Z,20.95
2022-12-18T08:43:53.437Z,20.52
2022-12-18T08:46:20.778Z,24.13
2022-12-18T08:48:47.741Z,24.73
2022-12-18T08:51:14.311Z,25.48
2022-12-18T08:53:41.135Z,21.02
2022-12-18T08:56:08.437Z,21.15
2022-12-18T08:58:34.947Z,26.40
2022-12-18T09:01:02.944Z,25.13
2022-12-18T09:03:29.638Z,23.83
2022-12-18T09:05:56.067Z,26.88
2022-12-18T09:08:22.572Z,24.25
2022-12-18T09:10:49.801Z,25.50
2022-12-18T09:13:17.182Z,24.67
2022-12-18T09:15:50.886Z,40.13
2022-12-18T09:18:18.275Z,25.27
2022-12-18T09:20:45.010Z,26.75
2022-12-18T09:23:12.040Z,30.60
2022-12-18T09:25:38.828Z,30.67
2022-12-18T09:28:15.669Z,28.98
2022-12-18T09:30:43.598Z,31.13
2022-12-18T09:33:10.170Z,29.58
2022-12-18T09:35:37.662Z,30.55
2022-12-18T09:38:04.163Z,27.80
2022-12-18T09:40:35.177Z,30.33
2022-12-18T09:43:04.060Z,29.80
2022-12-18T09:45:35.688Z,30.23
2022-12-18T09:48:02.669Z,31.65
2022-12-18T09:50:39.122Z,31.80
2022-12-18T09:53:07.534Z,30.20
2022-12-18T09:55:38.069Z,31.90
2022-12-18T09:58:13.005Z,32.08
2022-12-18T10:00:39.484Z,31.95
2022-12-18T10:03:13.344Z,32.45
2022-12-18T10:05:39.974Z,33.70
2022-12-18T10:08:21.410Z,33.20
2022-12-18T10:10:49.985Z,36.33
2022-12-18T10:13:30.951Z,33.80
2022-12-18T10:16:09.547Z,32.20
2022-12-18T10:18:51.499Z,33.60
2022-12-18T10:21:20.796Z,33.58
2022-12-18T10:24:10.330Z,33.25
2022-12-18T10:26:36.858Z,33.10
2022-12-18T10:29:05.994Z,33.22
2022-12-18T10:31:32.736Z,35.67
2022-12-18T10:33:59.241Z,36.40
2022-12-18T10:36:26.073Z,35.50
2022-12-18T10:38:52.593Z,33.78
2022-12-18T10:41:19.604Z,32.40
2022-12-18T10:43:48.484Z,32.50
2022-12-18T10:46:16.750Z,32.00
2022-12-18T10:48:49.440Z,34.42
2022-12-18T10:51:27.293Z,32.80
2022-12-18T10:54:00.276Z,34.28
2022-12-18T10:56:28.740Z,32.72
2022-12-18T10:58:59.831Z,31.80
2022-12-18T11:01:27.018Z,30.63
2022-12-18T11:03:57.558Z,29.67
2022-12-18T11:06:26.883Z,29.23
2022-12-18T11:09:13.291Z,30.20
2022-12-18T11:11:41.055Z,29.45
2022-12-18T11:14:19.874Z,29.52
2022-12-18T11:17:23.751Z,27.25
2022-12-18T11:19:35.506Z,31.15
2022-12-18T11:22:03.403Z,27.65
2022-12-18T11:24:29.798Z,27.33
2022-12-18T11:26:59.915Z,29.70
2022-12-18T11:29:46.261Z,29.92
2022-12-18T11:32:15.855Z,30.00
2022-12-18T11:34:43.775Z,30.00
2022-12-18T11:37:10.759Z,28.20
2022-12-18T11:39:37.368Z,26.30
2022-12-18T11:42:10.012Z,25.35
2022-12-18T11:44:55.349Z,29.92
2022-12-18T11:47:38.616Z,25.23
2022-12-18T11:50:12.384Z,25.98
2022-12-18T11:52:40.769Z,28.33
2022-12-18T11:55:26.624Z,28.77
2022-12-18T11:58:02.737Z,26.15
2022-12-18T12:00:29.556Z,33.05
2022-12-18T12:02:56.061Z,31.23
2022-12-18T12:05:28.691Z,42.63
2022-12-18T12:07:58.999Z,31.00
2022-12-18T12:10:25.536Z,31.35
2022-12-18T12:13:00.886Z,32.05
2022-12-18T12:15:36.896Z,31.67
2022-12-18T12:18:14.329Z,30.20
2022-12-18T12:20:40.787Z,34.17
2022-12-18T12:23:15.070Z,30.55
2022-12-18T12:25:47.072Z,42.28
2022-12-18T12:28:21.890Z,30.17
2022-12-18T12:31:03.947Z,32.60
2022-12-18T12:34:01.205Z,33.45
2022-12-18T12:36:36.515Z,33.75
2022-12-18T12:39:07.095Z,31.98
2022-12-18T12:41:53.236Z,36.50
2022-12-18T12:44:23.323Z,32.60
2022-12-18T12:46:50.233Z,36.20
2022-12-18T12:49:18.477Z,32.38
2022-12-18T12:51:47.077Z,33.83
2022-12-18T12:54:18.746Z,34.13
2022-12-18T12:57:00.792Z,35.45
2022-12-18T12:59:29.919Z,33.42
2022-12-18T13:02:17.325Z,29.90
2022-12-18T13:04:50.915Z,30.50
2022-12-18T13:07:24.699Z,27.20
2022-12-18T13:10:09.873Z,30.67
2022-12-18T13:12:56.491Z,29.95
2022-12-18T13:15:24.477Z,31.05
2022-12-18T13:18:14.716Z,31.58
2022-12-18T13:20:43.095Z,34.60
2022-12-18T13:23:24.138Z,34.65
2022-12-18T13:25:58.186Z,34.85
2022-12-18T13:28:33.723Z,34.20
2022-12-18T13:31:01.470Z,32.25
2022-12-18T13:33:30.792Z,32.40
2022-12-18T13:36:10.941Z,29.65
2022-12-18T13:38:41.355Z,33.28
2022-12-18T13:41:08.414Z,32.55
2022-12-18T13:43:38.429Z,34.58
2022-12-18T13:46:05.193Z,36.13
2022-12-18T13:48:37.838Z,33.58
2022-12-18T13:51:06.696Z,35.92
2022-12-18T13:53:43.283Z,35.95
2022-12-18T13:56:10.170Z,37.20
2022-12-18T13:58:36.694Z,72.60
2022-12-18T14:01:05.704Z,40.08
2022-12-18T14:03:32.416Z,34.72
2022-12-18T14:06:17.572Z,38.88
2022-12-18T14:08:45.422Z,41.60
2022-12-18T14:11:20.088Z,37.92
2022-12-18T14:13:48.332Z,38.53
2022-12-18T14:16:15.940Z,37.42
2022-12-18T14:18:56.900Z,37.53
2022-12-18T14:21:33.471Z,37.78
2022-12-18T14:24:15.867Z,40.83
2022-12-18T14:26:45.354Z,41.13
2022-12-18T14:29:32.042Z,38.67
2022-12-18T14:32:05.795Z,38.92
2022-12-18T14:34:32.333Z,43.40
2022-12-18T14:36:58.747Z,37.08
2022-12-18T14:39:26.416Z,39.08
2022-12-18T14:41:54.197Z,44.53
2022-12-18T14:44:22.307Z,44.22
2022-12-18T14:46:50.217Z,42.45
2022-12-18T14:49:22.426Z,41.20
2022-12-18T14:51:50.101Z,42.38
2022-12-18T14:54:17.823Z,45.75
2022-12-18T14:56:45.794Z,41.33
2022-12-18T14:59:24.473Z,41.40
2022-12-18T15:01:51.570Z,38.92
2022-12-18T15:04:36.148Z,40.95
2022-12-18T15:07:23.125Z,37.67
2022-12-18T15:10:04.938Z,39.70
2022-12-18T15:12:35.236Z,41.65
2022-12-18T15:15:01.720Z,41.80
2022-12-18T15:17:28.410Z,41.72
2022-12-18T15:19:59.818Z,44.42
2022-12-18T15:22:26.314Z,47.30
2022-12-18T15:24:53.096Z,44.92
2022-12-18T15:27:25.583Z,43.13
2022-12-18T15:30:10.564Z,40.60
2022-12-18T15:32:37.812Z,41.17
2022-12-18T15:35:23.855Z,36.00
2022-12-18T15:37:51.388Z,36.03
2022-12-18T15:40:25.004Z,37.92
2022-12-18T15:43:12.119Z,40.15
2022-12-18T15:45:38.539Z,38.45
2022-12-18T15:48:23.825Z,42.65
2022-12-18T15:50:54.189Z,39.30
2022-12-18T15:53:20.807Z,36.67
2022-12-18T15:56:06.003Z,38.22
2022-12-18T15:58:33.927Z,40.75
2022-12-18T16:01:01.516Z,41.58
2022-12-18T16:03:28.330Z,39.53
2022-12-18T16:05:55.068Z,38.83
2022-12-18T16:08:22.937Z,38.20
2022-12-18T16:10:49.363Z,40.20
2022-12-18T16:13:17.255Z,38.38
2022-12-18T16:15:43.878Z,42.13
2022-12-18T16:18:10.325Z,40.90
2022-12-18T16:20:36.832Z,43.03
2022-12-18T16:23:03.349Z,42.92
2022-12-18T16:25:29.929Z,37.13
2022-12-18T16:27:56.951Z,40.13
2022-12-18T16:30:28.729Z,36.17
2022-12-18T16:32:59.524Z,40.92
2022-12-18T16:35:26.488Z,37.38
2022-12-18T16:37:53.113Z,36.42
2022-12-18T16:40:19.753Z,36.60
2022-12-18T16:42:46.658Z,36.67
2022-12-18T16:45:14.899Z,37.20
2022-12-18T16:47:41.432Z,36.13
2022-12-18T16:50:08.398Z,39.05
2022-12-18T16:52:35.462Z,38.28
2022-12-18T16:55:02.055Z,40.78
2022-12-18T16:57:28.606Z,40.88
2022-12-18T16:59:58.714Z,40.47
2022-12-18T17:02:28.449Z,36.40
2022-12-18T17:04:56.003Z,42.25
2022-12-18T17:07:23.333Z,45.20
2022-12-18T17:09:51.162Z,42.95
2022-12-18T17:12:17.840Z,39.97
2022-12-18T17:14:44.336Z,40.75
2022-12-18T17:17:26.925Z,40.92
2022-12-18T17:19:53.504Z,38.13
2022-12-18T17:22:20.622Z,39.10
2022-12-18T17:24:47.318Z,33.97
2022-12-18T17:27:14.033Z,33.25
2022-12-18T17:29:46.871Z,34.72
2022-12-18T17:32:14.660Z,34.58
2022-12-18T17:34:41.196Z,33.50
2022-12-18T17:37:08.031Z,28.85
2022-12-18T17:39:34.635Z,28.35
2022-12-18T17:42:01.341Z,30.42
2022-12-18T17:44:28.055Z,30.70
2022-12-18T17:46:54.580Z,31.70
2022-12-18T17:49:21.585Z,32.72
2022-12-18T17:51:48.512Z,31.52
2022-12-18T17:54:14.990Z,34.63
2022-12-18T17:56:41.571Z,33.85
2022-12-18T17:59:08.258Z,36.50
2022-12-18T18:01:38.397Z,40.33
2022-12-18T18:04:09.320Z,39.45
2022-12-18T18:06:39.219Z,33.40
2022-12-18T18:09:08.634Z,31.05
2022-12-18T18:12:00.001Z,31.70
2022-12-18T18:14:27.461Z,30.98
2022-12-18T18:16:54.472Z,30.13
2022-12-18T18:19:23.349Z,32.10
2022-12-18T18:21:52.095Z,34.72
2022-12-18T18:24:20.147Z,38.97
2022-12-18T18:26:47.076Z,41.40
2022-12-18T18:29:21.195Z,38.13
2022-12-18T18:31:48.654Z,36.55
2022-12-18T18:34:21.723Z,31.30
2022-12-18T18:36:48.283Z,32.78
2022-12-18T18:39:15.209Z,33.03
2022-12-18T18:41:47.681Z,32.15
2022-12-18T18:44:15.063Z,31.08
2022-12-18T18:46:41.553Z,32.25
2022-12-18T18:49:08.059Z,31.80
2022-12-18T18:51:35.338Z,26.83
2022-12-18T18:54:02.300Z,25.25
2022-12-18T18:59:15.572Z,30.23
2022-12-18T19:01:42.221Z,31.42
2022-12-18T19:04:08.856Z,28.15
2022-12-18T19:06:35.373Z,28.83
2022-12-18T19:09:04.316Z,28.73
2022-12-18T19:11:49.742Z,31.00
2022-12-18T19:14:17.487Z,28.45
2022-12-18T19:16:45.500Z,33.83
2022-12-18T19:19:12.937Z,31.92
2022-12-18T19:21:40.707Z,29.38
2022-12-18T19:24:07.376Z,26.30
2022-12-18T19:26:34.341Z,26.23
2022-12-18T19:29:02.108Z,26.00
2022-12-18T19:31:34.834Z,26.70
2022-12-18T19:34:02.365Z,27.42
2022-12-18T19:36:29.541Z,26.42
2022-12-18T19:38:57.769Z,28.05
2022-12-18T19:41:25.641Z,44.30
2022-12-18T19:43:54.194Z,29.80
2022-12-18T19:46:21.592Z,29.15
2022-12-18T19:48:48.699Z,31.15
2022-12-18T19:51:19.563Z,25.23
2022-12-18T19:53:46.530Z,22.98
2022-12-18T19:56:14.349Z,26.40
2022-12-18T19:58:41.238Z,27.13
2022-12-18T20:01:11.475Z,26.20
2022-12-18T20:03:40.394Z,24.45
2022-12-18T20:06:10.287Z,23.52
2022-12-18T20:08:37.183Z,28.10
2022-12-18T20:11:03.758Z,25.42
2022-12-18T20:13:30.923Z,25.35
2022-12-18T20:15:57.570Z,26.80
2022-12-18T20:18:24.001Z,24.67
2022-12-18T20:20:50.831Z,23.20
2022-12-18T20:23:18.433Z,23.15
2022-12-18T20:25:45.102Z,24.70
2022-12-18T20:28:11.594Z,24.20
2022-12-18T20:30:38.361Z,24.58
2022-12-18T20:33:04.854Z,23.75
2022-12-18T20:35:34.368Z,23.50
2022-12-18T20:38:01.245Z,22.95
2022-12-18T20:40:28.610Z,23.75
2022-12-18T20:42:55.152Z,24.75
2022-12-18T20:45:21.612Z,24.65
2022-12-18T20:47:48.050Z,24.45
2022-12-18T20:50:14.493Z,26.15
2022-12-18T20:52:40.977Z,26.08
2022-12-18T20:55:07.576Z,25.52
2022-12-18T20:57:34.060Z,22.50
2022-12-18T21:00:01.532Z,24.25
2022-12-18T21:02:28.111Z,24.60
2022-12-18T21:04:54.747Z,24.27
2022-12-18T21:07:21.294Z,24.55
2022-12-18T21:09:47.797Z,27.65
2022-12-18T21:12:45.348Z,24.17
2022-12-18T21:15:16.269Z,20.88
2022-12-18T21:17:44.808Z,22.05
2022-12-18T21:20:17.546Z,20.25
2022-12-18T21:22:44.796Z,26.20
2022-12-18T21:25:11.242Z,22.67
2022-12-18T21:27:37.712Z,22.40
2022-12-18T21:30:04.356Z,21.42
2022-12-18T21:32:33.423Z,19.45
2022-12-18T21:35:00.182Z,22.10
2022-12-18T21:37:26.755Z,21.10
2022-12-18T21:39:53.228Z,20.75
2022-12-18T21:42:38.262Z,25.63
2022-12-18T21:45:05.073Z,23.45
2022-12-18T21:47:31.505Z,24.02
2022-12-18T21:49:58.063Z,24.17
2022-12-18T21:52:32.241Z,24.23
2022-12-18T21:55:09.328Z,22.05
2022-12-18T21:57:37.201Z,20.63
2022-12-18T22:00:04.438Z,22.02
2022-12-18T22:02:38.559Z,19.42
2022-12-18T22:05:05.378Z,18.73
2022-12-18T22:07:32.197Z,19.77
2022-12-18T22:09:58.844Z,19.13
2022-12-18T22:12:37.004Z,21.13
2022-12-18T22:15:11.139Z,17.27
2022-12-18T22:17:39.163Z,17.05
2022-12-18T22:20:05.920Z,18.65
2022-12-18T22:22:32.405Z,19.45
2022-12-18T22:24:58.988Z,18.10
2022-12-18T22:27:25.467Z,19.48
2022-12-18T22:30:04.126Z,21.20
2022-12-18T22:32:31.742Z,17.77
2022-12-18T22:35:08.048Z,19.25
2022-12-18T22:37:37.180Z,19.08
2022-12-18T22:40:04.577Z,16.75
2022-12-18T22:42:32.533Z,17.20
2022-12-18T22:45:00.374Z,16.15
2022-12-18T22:47:30.064Z,17.23
2022-12-18T22:49:57.234Z,19.15
2022-12-18T22:52:24.724Z,18.27
2022-12-18T22:54:51.427Z,20.48
2022-12-18T22:57:20.016Z,18.10
2022-12-18T22:59:46.444Z,19.77
2022-12-18T23:02:13.055Z,18.60
2022-12-18T23:04:39.808Z,21.75
2022-12-18T23:07:06.630Z,19.13
2022-12-18T23:09:33.560Z,18.83
2022-12-18T23:12:00.552Z,17.58
2022-12-18T23:14:27.779Z,16.10
2022-12-18T23:16:54.197Z,19.75
2022-12-18T23:19:21.153Z,17.17
2022-12-18T23:21:50.212Z,16.70
2022-12-18T23:24:16.676Z,18.50
2022-12-18T23:26:43.234Z,19.55
2022-12-18T23:29:09.752Z,19.02
2022-12-18T23:31:37.463Z,21.45
2022-12-18T23:34:04.848Z,19.17
2022-12-18T23:36:34.016Z,16.05
2022-12-18T23:39:15.637Z,19.67
2022-12-18T23:41:59.391Z,15.93
2022-12-18T23:44:26.037Z,15.63
2022-12-18T23:46:52.850Z,16.88
2022-12-18T23:49:19.426Z,16.42
2022-12-18T23:51:45.893Z,15.25
2022-12-18T23:54:12.452Z,16.05
2022-12-18T23:56:38.985Z,16.60
2022-12-18T23:59:05.449Z,18.83
